Time;durP1;ratioP1;P1;durP2;ratioP2;P2;SDS_P1;SDS_P2;PMS_P1;PMS_P2;Temp;Humidity;BMP_temperature;BMP_pressure;BME280_temperature;BME280_humidity;BME280_pressure;Samples;Min_cycle;Max_cycle;Signal;HPM_P1;HPM_P2
2022/12/03 00:01:47;;;;;;;49.87;24.03;;;-0.20;4.30;;;;;;5095866;28;20219;-73
2022/12/03 00:04:14;;;;;;;50.87;23.00;;;-0.30;16.30;;;;;;5095649;28;20191;-73
2022/12/03 00:06:42;;;;;;;52.07;23.93;;;-0.20;20.80;;;;;;5095886;28;20531;-73
2022/12/03 00:09:09;;;;;;;42.07;20.97;;;-0.20;21.10;;;;;;5095452;28;20190;-73
2022/12/03 00:11:36;;;;;;;43.93;20.93;;;-0.20;17.90;;;;;;5095687;28;20598;-73
2022/12/03 00:14:03;;;;;;;53.77;24.00;;;-0.20;1.00;;;;;;5095424;28;20244;-73
2022/12/03 00:16:31;;;;;;;46.43;20.33;;;-0.30;7.70;;;;;;5095564;28;20225;-73
2022/12/03 00:18:58;;;;;;;47.07;22.50;;;-0.30;12.20;;;;;;5095483;28;20210;-73
2022/12/03 00:21:25;;;;;;;49.70;22.07;;;-0.30;20.40;;;;;;5095407;28;20575;-73
2022/12/03 00:23:53;;;;;;;53.87;24.60;;;-0.20;23.70;;;;;;5095225;28;20195;-73
2022/12/03 00:26:20;;;;;;;51.47;23.93;;;-0.30;3.70;;;;;;5095079;28;20543;-73
2022/12/03 00:28:47;;;;;;;51.07;24.87;;;-0.30;4.70;;;;;;5094569;28;20199;-73
2022/12/03 00:31:14;;;;;;;47.80;23.23;;;-0.30;12.40;;;;;;5095448;28;20198;-73
2022/12/03 00:33:41;;;;;;;50.73;23.30;;;-0.30;22.30;;;;;;5095227;28;20191;-73
2022/12/03 00:36:08;;;;;;;55.37;25.87;;;-0.30;41.80;;;;;;5095403;28;20191;-73
2022/12/03 00:38:35;;;;;;;57.57;26.33;;;-0.30;35.70;;;;;;5095318;28;20206;-73
2022/12/03 00:41:04;;;;;;;52.87;24.90;;;-0.20;29.70;;;;;;5095162;28;20215;-73
2022/12/03 00:43:31;;;;;;;53.30;24.90;;;-0.20;27.00;;;;;;5095186;28;20195;-73
2022/12/03 00:45:58;;;;;;;56.30;25.87;;;-0.20;27.70;;;;;;5095404;28;20191;-73
2022/12/03 00:48:25;;;;;;;59.90;25.70;;;-0.20;27.20;;;;;;5094818;28;20195;-73
2022/12/03 00:50:52;;;;;;;57.70;26.67;;;-0.20;34.20;;;;;;5094728;28;20551;-73
2022/12/03 00:53:19;;;;;;;55.17;26.00;;;-0.20;28.90;;;;;;5094878;28;20546;-73
2022/12/03 00:55:46;;;;;;;59.93;27.77;;;-0.20;35.90;;;;;;5094934;28;20225;-73
2022/12/03 00:58:14;;;;;;;55.37;26.47;;;-0.20;49.90;;;;;;5094871;28;20199;-73
2022/12/03 01:00:41;;;;;;;52.87;24.63;;;-0.20;29.30;;;;;;5094494;28;20260;-73
2022/12/03 01:03:09;;;;;;;58.07;25.30;;;-0.20;49.70;;;;;;5094579;28;20214;-73
2022/12/03 01:05:36;;;;;;;51.83;22.83;;;-0.20;45.10;;;;;;5094509;28;20203;-73
2022/12/03 01:08:03;;;;;;;51.20;22.57;;;-0.20;50.70;;;;;;5094689;28;20268;-74
2022/12/03 01:10:30;;;;;;;57.10;27.87;;;-0.20;81.10;;;;;;5094900;28;20195;-73
2022/12/03 01:12:57;;;;;;;58.00;24.67;;;-0.20;57.20;;;;;;5094370;28;20207;-73
2022/12/03 01:15:25;;;;;;;55.03;24.40;;;-0.20;66.80;;;;;;5094591;28;20610;-73
2022/12/03 01:17:53;;;;;;;55.07;25.50;;;-0.20;75.90;;;;;;5094332;28;20281;-73
2022/12/03 01:20:20;;;;;;;54.93;25.87;;;-0.20;51.90;;;;;;5094359;28;20222;-73
2022/12/03 01:22:47;;;;;;;55.03;23.80;;;-0.20;73.30;;;;;;5094468;28;20190;-74
2022/12/03 01:25:14;;;;;;;57.13;27.17;;;-0.20;81.90;;;;;;5094137;28;20187;-73
2022/12/03 01:27:42;;;;;;;58.17;26.73;;;-0.20;91.60;;;;;;5094337;28;20199;-73
2022/12/03 01:30:12;;;;;;;57.30;25.53;;;-0.20;76.10;;;;;;5093140;28;20198;-74
2022/12/03 01:32:39;;;;;;;57.70;26.80;;;-0.20;90.70;;;;;;5093920;28;20198;-73
2022/12/03 01:35:07;;;;;;;58.20;27.00;;;-0.20;93.40;;;;;;5093826;28;20621;-73
2022/12/03 01:37:34;;;;;;;58.43;25.97;;;-0.20;85.50;;;;;;5094144;28;20199;-74
2022/12/03 01:40:01;;;;;;;60.67;26.43;;;-0.20;92.70;;;;;;5094228;28;20202;-73
2022/12/03 01:42:31;;;;;;;62.07;27.43;;;-0.20;95.30;;;;;;5093057;28;20219;-74
2022/12/03 01:45:00;;;;;;;61.23;28.70;;;-0.20;99.10;;;;;;5093655;28;20179;-73
2022/12/03 01:47:30;;;;;;;49.60;21.67;;;-0.20;99.90;;;;;;5093812;28;20240;-73
2022/12/03 01:50:02;;;;;;;63.60;27.13;;;-0.20;98.10;;;;;;5093515;28;20233;-73
2022/12/03 01:52:32;;;;;;;59.40;28.00;;;-0.20;99.10;;;;;;5093406;28;20266;-73
2022/12/03 01:55:02;;;;;;;55.37;24.90;;;-0.20;99.90;;;;;;5093741;28;20199;-73
2022/12/03 01:57:34;;;;;;;59.27;26.20;;;-0.30;99.90;;;;;;5093469;28;20188;-73
2022/12/03 02:00:01;;;;;;;59.90;28.07;;;-0.20;99.90;;;;;;5094065;28;20211;-73
2022/12/03 02:02:31;;;;;;;54.10;24.83;;;-0.30;99.90;;;;;;5093318;28;20579;-73
2022/12/03 02:05:00;;;;;;;59.73;24.87;;;-0.30;99.90;;;;;;5093387;28;20200;-73
2022/12/03 02:07:29;;;;;;;57.53;24.73;;;-0.30;99.90;;;;;;5093468;28;20286;-73
2022/12/03 02:09:59;;;;;;;59.30;27.37;;;-0.20;99.90;;;;;;5093643;28;20199;-73
2022/12/03 02:12:30;;;;;;;45.53;19.23;;;-0.20;99.90;;;;;;5093438;28;20255;-73
2022/12/03 02:14:58;;;;;;;59.37;25.60;;;-0.20;99.90;;;;;;5093464;28;20254;-73
2022/12/03 02:17:25;;;;;;;46.47;20.77;;;-0.20;99.90;;;;;;5093382;28;20617;-73
2022/12/03 02:19:53;;;;;;;43.83;16.90;;;-0.20;99.90;;;;;;5093494;28;20207;-74
2022/12/03 02:22:31;;;;;;;59.80;23.20;;;-0.20;99.90;;;;;;5093185;28;20216;-73
2022/12/03 02:25:09;;;;;;;56.07;23.87;;;-0.20;99.90;;;;;;5092746;28;20632;-73
2022/12/03 02:27:36;;;;;;;51.77;23.37;;;-0.20;99.90;;;;;;5093519;28;20176;-73
2022/12/03 02:30:04;;;;;;;56.03;23.50;;;-0.20;99.90;;;;;;5093254;28;20210;-74
2022/12/03 02:32:31;;;;;;;49.27;22.13;;;-0.20;99.90;;;;;;5093414;28;20193;-73
2022/12/03 02:34:58;;;;;;;48.07;21.93;;;-0.20;99.90;;;;;;5092708;28;20199;-73
2022/12/03 02:37:29;;;;;;;49.13;22.10;;;-0.20;99.90;;;;;;5093198;28;20199;-73
2022/12/03 02:39:59;;;;;;;43.10;20.93;;;-0.30;99.90;;;;;;5092534;28;20205;-73
2022/12/03 02:42:36;;;;;;;52.10;22.77;;;-0.20;99.90;;;;;;5092700;28;20271;-74
2022/12/03 02:45:08;;;;;;;53.97;23.97;;;-0.20;99.90;;;;;;5092985;28;20218;-73
2022/12/03 02:47:39;;;;;;;55.87;25.27;;;-0.20;99.90;;;;;;5092995;28;20209;-73
2022/12/03 02:50:07;;;;;;;50.10;22.20;;;-0.20;99.90;;;;;;5092618;28;20684;-73
2022/12/03 02:52:35;;;;;;;51.83;25.07;;;-0.20;99.90;;;;;;5092773;28;20183;-73
2022/12/03 02:55:03;;;;;;;52.50;24.37;;;-0.30;99.90;;;;;;5092939;28;20191;-73
2022/12/03 02:57:32;;;;;;;51.53;23.53;;;-0.30;99.90;;;;;;5092671;28;20248;-73
2022/12/03 02:59:59;;;;;;;52.93;23.00;;;-0.20;99.90;;;;;;5092662;28;20191;-73
2022/12/03 03:02:27;;;;;;;58.57;25.00;;;-0.30;99.90;;;;;;5092631;28;20215;-73
2022/12/03 03:04:54;;;;;;;46.00;22.63;;;-0.30;99.90;;;;;;5092289;28;20219;-74
2022/12/03 03:07:22;;;;;;;41.97;18.40;;;-0.30;99.90;;;;;;5092611;28;20195;-73
2022/12/03 03:09:49;;;;;;;54.47;26.37;;;-0.30;99.90;;;;;;5092679;28;20203;-73
2022/12/03 03:12:17;;;;;;;53.83;25.27;;;-0.30;99.90;;;;;;5092584;28;20271;-73
2022/12/03 03:14:45;;;;;;;57.03;24.20;;;-0.40;99.90;;;;;;5092236;28;20676;-73
2022/12/03 03:17:12;;;;;;;49.63;22.33;;;-0.40;99.90;;;;;;5092515;28;20202;-74
2022/12/03 03:19:39;;;;;;;53.60;25.80;;;-0.40;99.90;;;;;;5092520;28;20253;-74
2022/12/03 03:22:06;;;;;;;53.33;24.80;;;-0.40;99.90;;;;;;5092564;28;20219;-74
2022/12/03 03:24:33;;;;;;;57.60;26.33;;;-0.40;99.90;;;;;;5091843;28;20195;-73
2022/12/03 03:27:00;;;;;;;54.47;26.03;;;-0.40;99.90;;;;;;5092441;28;20203;-73
2022/12/03 03:29:27;;;;;;;56.10;25.03;;;-0.30;99.90;;;;;;5092310;28;20245;-74
2022/12/03 03:31:57;;;;;;;58.10;25.83;;;-0.30;99.90;;;;;;5092524;28;20597;-73
2022/12/03 03:34:24;;;;;;;54.03;23.90;;;-0.40;99.90;;;;;;5092367;28;20191;-73
2022/12/03 03:36:51;;;;;;;48.53;20.37;;;-0.30;99.90;;;;;;5091833;28;20596;-73
2022/12/03 03:39:18;;;;;;;58.47;22.43;;;-0.40;99.90;;;;;;5092004;28;20665;-73
2022/12/03 03:41:46;;;;;;;51.60;23.93;;;-0.40;99.90;;;;;;5092261;28;20211;-74
2022/12/03 03:44:14;;;;;;;54.30;21.83;;;-0.40;99.90;;;;;;5091981;28;20195;-74
2022/12/03 03:46:41;;;;;;;56.50;24.40;;;-0.40;99.90;;;;;;5092182;28;20199;-74
2022/12/03 03:49:10;;;;;;;67.30;28.10;;;-0.40;99.90;;;;;;5092516;28;20199;-73
2022/12/03 03:51:38;;;;;;;63.37;27.83;;;-0.40;99.90;;;;;;5091957;28;20643;-73
2022/12/03 03:54:06;;;;;;;64.93;29.07;;;-0.40;99.90;;;;;;5092270;28;20256;-73
2022/12/03 03:56:34;;;;;;;61.07;25.33;;;-0.40;99.90;;;;;;5092220;28;20195;-73
2022/12/03 03:59:02;;;;;;;60.23;25.30;;;-0.40;99.90;;;;;;5091772;28;20203;-73
2022/12/03 04:01:30;;;;;;;65.17;26.50;;;-0.40;99.90;;;;;;5092012;28;20615;-73
2022/12/03 04:03:58;;;;;;;61.30;24.33;;;-0.50;99.90;;;;;;5091857;28;20199;-73
2022/12/03 04:06:27;;;;;;;51.73;23.67;;;-0.50;99.90;;;;;;5084689;28;20183;-74
2022/12/03 04:08:54;;;;;;;61.33;25.50;;;-0.50;99.90;;;;;;5095683;28;20191;-73
2022/12/03 04:14:06;;;;;;;62.17;25.93;;;-0.50;99.90;;;;;;5095583;28;20175;-73
2022/12/03 04:16:33;;;;;;;63.80;26.63;;;-0.50;99.90;;;;;;5095386;28;20187;-73
2022/12/03 04:19:00;;;;;;;58.03;25.67;;;-0.50;99.90;;;;;;5095693;28;20191;-73
2022/12/03 04:24:27;;;;;;;62.43;26.87;;;-0.50;99.90;;;;;;5033164;28;20751;-73
2022/12/03 04:29:38;;;;;;;45.20;19.00;;;-0.50;99.90;;;;;;5067987;28;20666;-73
2022/12/03 04:37:41;;;;;;;50.83;23.17;;;-0.50;99.90;;;;;;5095265;28;20186;-73
2022/12/03 04:40:59;;;;;;;50.20;22.33;;;-0.50;99.90;;;;;;5095188;28;20195;-74
2022/12/03 04:42:56;;;;;;;55.93;24.87;;;-0.50;99.90;;;;;;5094893;28;20684;-73
2022/12/03 04:45:23;;;;;;;57.90;24.23;;;-0.50;99.90;;;;;;5095026;28;20195;-74
2022/12/03 04:47:50;;;;;;;59.30;25.10;;;-0.50;99.90;;;;;;5095062;28;20202;-73
2022/12/03 04:50:17;;;;;;;56.00;23.63;;;-0.50;99.90;;;;;;5094954;28;20235;-73
2022/12/03 04:52:45;;;;;;;53.97;24.23;;;-0.50;99.90;;;;;;5094723;28;20587;-74
2022/12/03 04:55:12;;;;;;;55.80;22.50;;;-0.60;99.90;;;;;;5094759;28;20657;-73
2022/12/03 04:57:39;;;;;;;58.40;23.63;;;-0.60;99.90;;;;;;5095161;28;20199;-73
2022/12/03 05:00:07;;;;;;;61.03;26.57;;;-0.50;99.90;;;;;;5095054;28;20587;-73
2022/12/03 05:02:34;;;;;;;61.37;27.17;;;-0.60;99.90;;;;;;5094855;28;20223;-73
2022/12/03 05:05:01;;;;;;;63.17;25.97;;;-0.60;99.90;;;;;;5094490;28;20559;-73
2022/12/03 05:07:28;;;;;;;54.30;22.77;;;-0.60;99.90;;;;;;5094556;28;20681;-73
2022/12/03 05:09:57;;;;;;;56.13;26.27;;;-0.60;1.00;;;;;;5094477;28;20202;-73
2022/12/03 05:12:24;;;;;;;51.67;21.40;;;-0.60;1.00;;;;;;5094795;28;20202;-73
2022/12/03 05:14:51;;;;;;;64.83;26.30;;;-0.60;1.00;;;;;;5094507;28;20191;-73
2022/12/03 05:17:18;;;;;;;62.27;25.00;;;-0.60;1.00;;;;;;5094564;28;20199;-73
2022/12/03 05:22:44;;;;;;;58.63;24.27;;;-0.50;1.00;;;;;;5052243;28;20278;-73
2022/12/03 05:25:12;;;;;;;64.43;25.53;;;-0.50;1.00;;;;;;5052050;28;20238;-73
2022/12/03 05:27:39;;;;;;;63.13;26.57;;;-0.50;1.00;;;;;;5070722;28;20199;-74
2022/12/03 05:30:08;;;;;;;58.03;23.87;;;-0.40;1.00;;;;;;5094184;28;20203;-73
2022/12/03 05:32:35;;;;;;;62.50;24.53;;;-0.50;1.00;;;;;;5093898;28;20661;-73
2022/12/03 05:35:02;;;;;;;60.50;24.73;;;-0.50;1.00;;;;;;5094115;28;20249;-73
2022/12/03 05:37:29;;;;;;;66.57;25.37;;;-0.50;1.00;;;;;;5093993;28;20191;-73
2022/12/03 05:39:56;;;;;;;64.37;26.03;;;-0.50;1.00;;;;;;5094121;28;20195;-73
2022/12/03 05:45:09;;;;;;;55.60;24.77;;;-0.50;1.00;;;;;;5093583;28;20292;-73
2022/12/03 05:47:36;;;;;;;66.10;25.70;;;-0.50;1.00;;;;;;5093801;28;20184;-73
2022/12/03 05:50:04;;;;;;;63.93;27.93;;;-0.50;1.00;;;;;;5093390;28;20199;-73
2022/12/03 05:52:31;;;;;;;63.37;26.27;;;-0.50;1.00;;;;;;5093988;28;20179;-73
2022/12/03 05:54:58;;;;;;;61.80;25.57;;;-0.50;1.00;;;;;;5093545;28;20194;-73
2022/12/03 05:57:27;;;;;;;70.10;27.97;;;-0.50;1.00;;;;;;5093747;28;20605;-73
2022/12/03 05:59:54;;;;;;;63.73;24.73;;;-0.60;1.00;;;;;;5093673;28;20256;-73
2022/12/03 06:02:21;;;;;;;63.10;25.33;;;-0.60;1.00;;;;;;5093396;28;20264;-74
2022/12/03 06:04:48;;;;;;;51.87;22.77;;;-0.60;1.00;;;;;;5093760;28;20244;-73
2022/12/03 06:07:15;;;;;;;62.63;26.10;;;-0.60;1.00;;;;;;5093502;28;20714;-73
2022/12/03 06:09:42;;;;;;;61.53;26.37;;;-0.60;1.00;;;;;;5093282;28;20191;-73
2022/12/03 06:12:09;;;;;;;62.30;26.20;;;-0.70;1.00;;;;;;5093466;28;20252;-73
2022/12/03 06:14:37;;;;;;;65.37;26.27;;;-0.70;1.00;;;;;;5093455;28;20603;-73
2022/12/03 06:17:04;;;;;;;57.53;22.97;;;-0.70;1.00;;;;;;5093276;28;20587;-73
2022/12/03 06:19:31;;;;;;;55.70;22.77;;;-0.70;1.00;;;;;;5093065;28;20285;-73
2022/12/03 06:21:58;;;;;;;60.23;25.27;;;-0.70;1.00;;;;;;5092929;28;20272;-73
2022/12/03 06:24:25;;;;;;;59.40;25.50;;;-0.70;1.00;;;;;;5093247;28;20198;-74
2022/12/03 06:26:52;;;;;;;56.73;24.73;;;-0.70;1.00;;;;;;5092496;28;20195;-74
2022/12/03 06:29:19;;;;;;;63.03;27.27;;;-0.60;1.00;;;;;;5093336;28;20195;-74
2022/12/03 06:31:49;;;;;;;55.23;23.50;;;-0.70;1.00;;;;;;5093439;28;20195;-73
2022/12/03 06:34:16;;;;;;;63.13;24.73;;;-0.70;1.00;;;;;;5093155;28;20190;-73
2022/12/03 06:36:45;;;;;;;63.73;27.00;;;-0.70;1.00;;;;;;5092751;28;20644;-73
2022/12/03 06:39:12;;;;;;;65.67;26.93;;;-0.70;1.00;;;;;;5092347;28;20199;-73
2022/12/03 06:41:39;;;;;;;59.97;26.43;;;-0.70;1.00;;;;;;5092905;28;20222;-73
2022/12/03 06:44:06;;;;;;;62.83;23.97;;;-0.70;1.00;;;;;;5092938;28;20199;-74
2022/12/03 06:46:33;;;;;;;66.40;26.23;;;-0.70;1.00;;;;;;5092613;28;20202;-73
2022/12/03 06:49:02;;;;;;;66.73;27.07;;;-0.70;1.00;;;;;;5092882;28;20248;-73
2022/12/03 06:51:29;;;;;;;62.97;26.40;;;-0.80;1.00;;;;;;5092357;28;20623;-73
2022/12/03 06:53:56;;;;;;;64.40;25.67;;;-0.70;1.00;;;;;;5092756;28;20190;-73
2022/12/03 06:56:23;;;;;;;59.70;23.53;;;-0.70;1.00;;;;;;5092890;28;20224;-74
2022/12/03 06:58:50;;;;;;;64.53;26.63;;;-0.70;1.00;;;;;;5092980;28;20194;-73
2022/12/03 07:01:17;;;;;;;62.73;24.80;;;-0.70;1.00;;;;;;5092611;28;20195;-74
2022/12/03 07:03:44;;;;;;;57.47;24.80;;;-0.80;1.00;;;;;;5092579;28;20219;-73
2022/12/03 07:06:12;;;;;;;55.27;24.17;;;-0.80;1.00;;;;;;5092461;28;20199;-73
2022/12/03 07:08:40;;;;;;;62.83;24.57;;;-0.70;1.00;;;;;;5092116;28;20198;-73
2022/12/03 07:11:29;;;;;;;64.70;26.40;;;-0.80;1.00;;;;;;5092541;28;20187;-73
2022/12/03 07:13:54;;;;;;;59.97;24.90;;;-0.80;1.00;;;;;;5092121;28;20649;-74
2022/12/03 07:16:22;;;;;;;59.77;25.77;;;-0.80;1.00;;;;;;5092569;28;20248;-74
2022/12/03 07:18:49;;;;;;;49.03;20.47;;;-0.80;1.00;;;;;;5092456;28;20558;-73
2022/12/03 07:21:18;;;;;;;60.47;24.90;;;-0.70;1.00;;;;;;5092506;28;20191;-73
2022/12/03 07:23:45;;;;;;;59.83;24.37;;;-0.70;1.00;;;;;;5091850;28;20753;-74
2022/12/03 07:26:12;;;;;;;60.50;24.53;;;-0.70;1.00;;;;;;5092460;28;20464;-73
2022/12/03 07:28:39;;;;;;;58.00;23.70;;;-0.70;1.00;;;;;;5103746;28;20647;-74
2022/12/03 07:31:06;;;;;;;63.43;24.67;;;-0.70;1.00;;;;;;5096726;28;20191;-74
2022/12/03 07:33:33;;;;;;;53.57;22.67;;;-0.70;1.00;;;;;;5092400;28;20198;-74
2022/12/03 07:36:00;;;;;;;56.97;23.67;;;-0.70;1.00;;;;;;5091430;28;20232;-74
2022/12/03 07:38:28;;;;;;;62.43;24.90;;;-0.70;1.00;;;;;;5095356;28;20195;-73
2022/12/03 07:40:55;;;;;;;55.47;23.57;;;-0.60;1.00;;;;;;5095783;28;20244;-73
2022/12/03 07:43:23;;;;;;;54.63;22.53;;;-0.60;1.00;;;;;;5095953;28;20218;-73
2022/12/03 07:45:51;;;;;;;59.33;23.40;;;-0.60;1.00;;;;;;5096036;28;20195;-72
2022/12/03 07:48:18;;;;;;;56.57;23.63;;;-0.60;1.00;;;;;;5096133;28;20742;-72
2022/12/03 07:50:45;;;;;;;56.27;23.47;;;-0.60;1.00;;;;;;5095960;28;20636;-73
2022/12/03 07:53:12;;;;;;;58.03;23.83;;;-0.50;1.00;;;;;;5098769;28;20649;-72
2022/12/03 07:55:40;;;;;;;50.13;22.07;;;-0.50;1.00;;;;;;5096136;28;20206;-74
2022/12/03 07:58:07;;;;;;;57.70;25.20;;;-0.50;1.00;;;;;;5099578;28;20286;-74
2022/12/03 08:00:35;;;;;;;54.27;23.77;;;-0.50;1.00;;;;;;5099609;28;20194;-72
2022/12/03 08:03:02;;;;;;;56.53;24.40;;;-0.40;19.90;;;;;;5096360;28;20207;-72
2022/12/03 08:05:30;;;;;;;54.83;22.50;;;-0.40;7.40;;;;;;5079360;28;20191;-73
2022/12/03 08:07:57;;;;;;;58.23;23.77;;;-0.30;11.50;;;;;;5085141;28;20270;-73
2022/12/03 08:10:26;;;;;;;56.93;24.40;;;-0.30;1.00;;;;;;5095224;28;20191;-73
2022/12/03 08:12:56;;;;;;;53.13;23.97;;;-0.30;1.00;;;;;;5096810;28;20241;-72
2022/12/03 08:15:25;;;;;;;52.53;20.67;;;-0.30;1.30;;;;;;5095369;28;20187;-74
2022/12/03 08:17:55;;;;;;;52.23;21.57;;;-0.20;1.00;;;;;;5094577;28;20198;-73
2022/12/03 08:20:26;;;;;;;55.60;21.77;;;-0.20;1.00;;;;;;5095971;28;20214;-73
2022/12/03 08:22:54;;;;;;;56.43;23.23;;;-0.20;1.00;;;;;;5108706;28;20217;-72
2022/12/03 08:25:23;;;;;;;53.13;24.17;;;-0.20;1.00;;;;;;5095835;28;20653;-72
2022/12/03 08:27:54;;;;;;;46.97;19.40;;;-0.20;1.00;;;;;;5094880;28;20652;-73
2022/12/03 08:30:24;;;;;;;55.30;23.10;;;-0.10;1.00;;;;;;5094872;28;20176;-74
2022/12/03 08:32:53;;;;;;;53.27;23.73;;;0.00;1.00;;;;;;5094901;28;20180;-73
2022/12/03 08:35:23;;;;;;;48.63;21.00;;;0.00;1.00;;;;;;5094909;28;20192;-74
2022/12/03 08:37:57;;;;;;;49.90;21.50;;;0.20;1.00;;;;;;5095407;28;20176;-72
2022/12/03 08:40:33;;;;;;;53.73;21.80;;;0.30;1.00;;;;;;5095319;28;20184;-73
2022/12/03 08:43:00;;;;;;;43.67;18.97;;;0.40;1.00;;;;;;5094601;28;20203;-73
2022/12/03 08:45:41;;;;;;;45.40;20.43;;;0.60;1.00;;;;;;5094897;28;20218;-73
2022/12/03 08:48:31;;;;;;;44.87;20.13;;;0.70;1.00;;;;;;5095180;28;20183;-73
2022/12/03 08:51:06;;;;;;;48.80;21.90;;;0.70;1.00;;;;;;5090097;28;20281;-74
2022/12/03 08:53:36;;;;;;;49.37;20.60;;;0.90;1.00;;;;;;5094889;28;20175;-72
2022/12/03 08:56:05;;;;;;;48.57;21.70;;;0.90;1.00;;;;;;5094638;28;20206;-74
2022/12/03 08:58:43;;;;;;;43.30;19.97;;;0.90;1.00;;;;;;5095186;28;20195;-74
2022/12/03 09:01:34;;;;;;;40.03;18.30;;;1.00;1.00;;;;;;5094519;28;20626;-72
2022/12/03 09:04:24;;;;;;;45.97;19.90;;;1.10;1.00;;;;;;5088912;28;20291;-74
2022/12/03 09:06:53;;;;;;;45.97;19.93;;;1.10;1.00;;;;;;5094520;28;20205;-74
2022/12/03 09:09:20;;;;;;;40.50;17.93;;;1.10;1.00;;;;;;5094411;28;20218;-74
2022/12/03 09:11:47;;;;;;;40.70;19.67;;;1.00;1.00;;;;;;5093883;28;20595;-74
2022/12/03 09:14:16;;;;;;;40.90;20.03;;;1.00;1.00;;;;;;5078166;28;20172;-77
2022/12/03 09:16:44;;;;;;;43.63;19.30;;;0.90;1.00;;;;;;5106949;28;20593;-72
2022/12/03 09:19:11;;;;;;;42.57;19.37;;;0.90;1.00;;;;;;5094512;28;20199;-73
2022/12/03 09:21:38;;;;;;;44.97;20.47;;;0.90;1.00;;;;;;5094205;28;20199;-73
2022/12/03 09:24:06;;;;;;;38.93;17.97;;;0.90;1.00;;;;;;5094449;28;20218;-72
2022/12/03 09:26:33;;;;;;;41.70;19.07;;;0.90;1.00;;;;;;5097328;28;20714;-73
2022/12/03 09:29:00;;;;;;;42.27;19.33;;;0.80;1.00;;;;;;5094268;28;20229;-73
2022/12/03 09:31:27;;;;;;;41.43;20.20;;;0.80;1.00;;;;;;5094247;28;20299;-73
2022/12/03 09:33:55;;;;;;;42.53;19.00;;;0.70;1.00;;;;;;5099060;28;20301;-72
2022/12/03 09:36:22;;;;;;;39.43;17.87;;;0.70;1.00;;;;;;5094059;28;20199;-73
2022/12/03 09:38:50;;;;;;;40.27;18.23;;;0.60;1.00;;;;;;5093609;28;20256;-73
2022/12/03 09:41:17;;;;;;;37.23;18.33;;;0.60;1.00;;;;;;5093605;28;20584;-73
2022/12/03 09:43:44;;;;;;;41.07;19.37;;;0.60;1.00;;;;;;5093973;28;20213;-73
2022/12/03 09:46:11;;;;;;;38.97;17.27;;;0.70;1.00;;;;;;5094108;28;20200;-73
2022/12/03 09:48:38;;;;;;;35.43;13.47;;;0.70;1.00;;;;;;5096301;28;20173;-72
2022/12/03 09:51:09;;;;;;;41.47;19.43;;;0.80;1.00;;;;;;5093667;28;20288;-74
2022/12/03 09:53:37;;;;;;;43.07;20.33;;;0.90;1.00;;;;;;5101009;28;20653;-74
2022/12/03 09:56:05;;;;;;;45.30;21.07;;;1.00;1.00;;;;;;5096616;28;20191;-73
2022/12/03 09:58:33;;;;;;;43.77;19.93;;;1.10;1.00;;;;;;5101441;28;20215;-76
2022/12/03 10:01:00;;;;;;;47.80;22.73;;;1.20;1.00;;;;;;5098324;28;20188;-74
2022/12/03 10:03:29;;;;;;;42.17;20.70;;;1.30;1.00;;;;;;5093072;28;20215;-73
2022/12/03 10:05:57;;;;;;;44.93;21.03;;;1.40;1.00;;;;;;5093644;28;20290;-73
2022/12/03 10:08:32;;;;;;;47.40;21.50;;;1.50;1.00;;;;;;5096665;28;20324;-74
2022/12/03 10:11:00;;;;;;;40.87;20.57;;;1.50;1.00;;;;;;5097800;28;20240;-73
2022/12/03 10:13:30;;;;;;;44.83;19.43;;;1.60;1.00;;;;;;5093394;28;20221;-72
2022/12/03 10:15:59;;;;;;;44.17;21.17;;;1.60;1.00;;;;;;5093592;28;20201;-72
2022/12/03 10:18:28;;;;;;;44.43;19.93;;;1.60;1.00;;;;;;5096084;28;20195;-73
2022/12/03 10:20:56;;;;;;;46.27;19.90;;;1.60;1.00;;;;;;5096198;28;20195;-73
2022/12/03 10:23:26;;;;;;;46.70;22.27;;;1.60;99.90;;;;;;5097338;28;20662;-73
2022/12/03 10:25:55;;;;;;;41.80;20.43;;;1.60;1.00;;;;;;5093368;28;20623;-72
2022/12/03 10:28:31;;;;;;;44.57;21.90;;;1.60;1.00;;;;;;5096367;28;20662;-74
2022/12/03 10:30:59;;;;;;;42.40;20.87;;;1.60;1.00;;;;;;5094829;28;20195;-72
2022/12/03 10:33:32;;;;;;;46.67;21.67;;;1.70;99.90;;;;;;5096732;28;20204;-74
2022/12/03 10:36:15;;;;;;;45.53;22.93;;;1.60;99.90;;;;;;5096127;28;20192;-72
2022/12/03 10:38:44;;;;;;;41.77;20.40;;;1.60;99.90;;;;;;5092510;28;20207;-73
2022/12/03 10:41:23;;;;;;;46.80;21.93;;;1.60;99.90;;;;;;5098426;28;20588;-73
2022/12/03 10:43:50;;;;;;;43.47;20.53;;;1.60;99.90;;;;;;5092775;28;20256;-73
2022/12/03 10:46:18;;;;;;;47.13;21.83;;;1.60;99.90;;;;;;5095012;28;20191;-73
2022/12/03 10:48:45;;;;;;;45.57;22.70;;;1.60;99.90;;;;;;5094024;28;20556;-73
2022/12/03 10:51:19;;;;;;;49.33;23.07;;;1.50;99.90;;;;;;5093845;28;20318;-73
2022/12/03 10:53:49;;;;;;;46.33;22.57;;;1.50;99.90;;;;;;5095874;28;20183;-73
2022/12/03 10:56:24;;;;;;;50.47;21.40;;;1.60;99.90;;;;;;5091910;28;20200;-73
2022/12/03 10:58:51;;;;;;;50.00;23.07;;;1.50;99.90;;;;;;5093749;28;20191;-74
2022/12/03 11:01:21;;;;;;;51.43;23.67;;;1.60;99.90;;;;;;5074762;28;20183;-74
2022/12/03 11:03:48;;;;;;;48.17;22.63;;;1.50;99.90;;;;;;5089849;28;20222;-74
2022/12/03 11:06:19;;;;;;;43.43;22.47;;;1.50;99.90;;;;;;5095679;28;20203;-73
2022/12/03 11:08:50;;;;;;;47.33;22.07;;;1.50;99.90;;;;;;5085284;28;20194;-73
2022/12/03 11:11:19;;;;;;;45.93;21.83;;;1.50;99.90;;;;;;5091887;28;20651;-72
2022/12/03 11:13:49;;;;;;;53.40;23.60;;;1.50;99.90;;;;;;5091513;28;20187;-72
2022/12/03 11:16:50;;;;;;;50.07;22.93;;;1.50;99.90;;;;;;5088207;28;20203;-73
2022/12/03 11:19:18;;;;;;;50.20;23.33;;;1.40;99.90;;;;;;5079718;28;20196;-73
2022/12/03 11:22:18;;;;;;;43.40;20.40;;;1.40;99.90;;;;;;5082878;28;20196;-72
2022/12/03 11:25:02;;;;;;;46.67;21.97;;;1.40;99.90;;;;;;5095552;28;20605;-77
2022/12/03 11:27:30;;;;;;;50.47;23.27;;;1.30;99.90;;;;;;5090461;28;20201;-73
2022/12/03 11:30:02;;;;;;;45.40;21.90;;;1.30;99.90;;;;;;5086457;28;20206;-73
2022/12/03 11:33:08;;;;;;;52.87;23.60;;;1.30;99.90;;;;;;5083792;28;20205;-74
2022/12/03 11:35:52;;;;;;;49.10;22.67;;;1.20;1.00;;;;;;5077807;28;20191;-74
2022/12/03 11:38:46;;;;;;;50.23;24.10;;;1.30;99.90;;;;;;5093073;28;20726;-74
2022/12/03 11:41:17;;;;;;;49.50;22.53;;;1.30;1.00;;;;;;5095035;28;20196;-74
2022/12/03 11:44:29;;;;;;;54.03;24.27;;;1.40;99.90;;;;;;5094779;28;20212;-73
2022/12/03 11:47:09;;;;;;;54.93;25.37;;;1.30;99.90;;;;;;5094773;28;20212;-73
2022/12/03 11:49:48;;;;;;;54.03;23.73;;;1.40;99.90;;;;;;5091487;28;20187;-73
2022/12/03 11:52:27;;;;;;;52.70;24.60;;;1.40;99.90;;;;;;5092936;28;20565;-74
2022/12/03 11:55:18;;;;;;;44.60;20.00;;;1.40;99.90;;;;;;5078458;28;20264;-73
2022/12/03 11:57:47;;;;;;;55.57;24.43;;;1.30;99.90;;;;;;5088027;28;20236;-73
2022/12/03 12:00:20;;;;;;;55.63;25.90;;;1.30;99.90;;;;;;5097041;28;20662;-72
2022/12/03 12:02:48;;;;;;;55.93;25.13;;;1.30;99.90;;;;;;5085023;28;20200;-76
2022/12/03 12:05:21;;;;;;;47.93;20.07;;;1.30;99.90;;;;;;5089479;28;20224;-73
2022/12/03 12:07:49;;;;;;;56.17;25.17;;;1.20;99.90;;;;;;5088866;28;20200;-74
2022/12/03 12:10:42;;;;;;;59.33;26.57;;;1.20;99.90;;;;;;5095184;28;20191;-76
2022/12/03 12:13:50;;;;;;;58.20;25.27;;;1.10;99.90;;;;;;5096402;28;20193;-74
2022/12/03 12:16:46;;;;;;;49.67;21.70;;;1.10;1.00;;;;;;5085013;28;20207;-74
2022/12/03 12:19:33;;;;;;;62.30;25.57;;;1.10;1.00;;;;;;5073391;28;20226;-73
2022/12/03 12:22:35;;;;;;;57.47;25.17;;;1.10;1.00;;;;;;5080429;28;20605;-74
2022/12/03 12:25:05;;;;;;;51.90;24.63;;;1.10;1.00;;;;;;5095395;28;20274;-77
2022/12/03 12:27:36;;;;;;;58.93;26.10;;;1.10;1.00;;;;;;5096701;28;20283;-73
2022/12/03 12:30:07;;;;;;;56.70;25.00;;;1.10;1.00;;;;;;5095368;28;20234;-73
2022/12/03 12:32:43;;;;;;;51.50;25.10;;;1.10;1.00;;;;;;5098492;28;20205;-74
2022/12/03 12:35:17;;;;;;;60.77;26.47;;;1.10;1.00;;;;;;5102478;28;20184;-74
2022/12/03 12:37:49;;;;;;;58.20;25.80;;;1.10;1.00;;;;;;5087072;28;20192;-75
2022/12/03 12:40:18;;;;;;;58.30;27.03;;;1.00;1.00;;;;;;5074633;28;20284;-74
2022/12/03 12:42:51;;;;;;;58.27;26.70;;;1.00;1.00;;;;;;5075328;28;20206;-74
2022/12/03 12:45:20;;;;;;;60.13;26.03;;;1.00;1.00;;;;;;5081895;28;20203;-73
2022/12/03 12:47:55;;;;;;;62.83;27.10;;;1.00;1.00;;;;;;5095131;28;20197;-73
2022/12/03 12:50:23;;;;;;;55.03;26.40;;;0.90;1.00;;;;;;5088673;28;20281;-77
2022/12/03 12:52:53;;;;;;;63.67;26.97;;;1.00;1.00;;;;;;5092305;28;20597;-73
2022/12/03 12:55:22;;;;;;;59.20;26.97;;;1.00;1.00;;;;;;5094883;28;20199;-73
2022/12/03 12:57:50;;;;;;;55.90;25.83;;;1.00;1.00;;;;;;5091745;28;20541;-73
2022/12/03 13:00:19;;;;;;;59.30;26.77;;;0.90;1.00;;;;;;5074434;28;20200;-73
2022/12/03 13:02:52;;;;;;;58.93;26.90;;;0.90;1.00;;;;;;5084818;28;20192;-74
2022/12/03 13:05:19;;;;;;;56.37;26.20;;;0.90;1.00;;;;;;5087043;28;20299;-74
2022/12/03 13:07:46;;;;;;;57.30;25.67;;;0.90;1.00;;;;;;5094478;28;20201;-74
2022/12/03 13:10:33;;;;;;;60.87;27.10;;;0.90;1.00;;;;;;5093574;28;20602;-73